sensor_id;sensor_type;location;lat;lon;timestamp;temperature;humidity
60473;DHT22;46318;52.716;6.444;2023-03-25T00:02:21;9.80;99.90
60473;DHT22;46318;52.716;6.444;2023-03-25T00:04:52;9.80;99.90
60473;DHT22;46318;52.716;6.444;2023-03-25T00:07:21;9.80;99.90
60473;DHT22;46318;52.716;6.444;2023-03-25T00:09:48;9.80;99.90
60473;DHT22;46318;52.716;6.444;2023-03-25T00:12:15;9.80;99.90
60473;DHT22;46318;52.716;6.444;2023-03-25T00:14:42;9.80;99.90
60473;DHT22;46318;52.716;6.444;2023-03-25T00:17:08;9.80;99.90
60473;DHT22;46318;52.716;6.444;2023-03-25T00:19:35;9.80;99.90
60473;DHT22;46318;52.716;6.444;2023-03-25T00:22:01;9.80;99.90
60473;DHT22;46318;52.716;6.444;2023-03-25T00:24:27;9.80;99.90
60473;DHT22;46318;52.716;6.444;2023-03-25T00:26:53;9.70;99.90
60473;DHT22;46318;52.716;6.444;2023-03-25T00:29:19;9.80;99.90
60473;DHT22;46318;52.716;6.444;2023-03-25T00:31:45;9.80;99.90
60473;DHT22;46318;52.716;6.444;2023-03-25T00:34:12;9.70;99.90
60473;DHT22;46318;52.716;6.444;2023-03-25T00:36:40;9.80;99.90
60473;DHT22;46318;52.716;6.444;2023-03-25T00:39:08;9.80;99.90
60473;DHT22;46318;52.716;6.444;2023-03-25T00:41:34;9.70;99.90
60473;DHT22;46318;52.716;6.444;2023-03-25T00:44:02;9.70;99.90
60473;DHT22;46318;52.716;6.444;2023-03-25T00:46:32;9.70;99.90
60473;DHT22;46318;52.716;6.444;2023-03-25T00:48:59;9.70;99.90
60473;DHT22;46318;52.716;6.444;2023-03-25T00:51:26;9.70;99.90
60473;DHT22;46318;52.716;6.444;2023-03-25T00:53:54;9.70;99.90
60473;DHT22;46318;52.716;6.444;2023-03-25T00:56:22;9.70;99.90
60473;DHT22;46318;52.716;6.444;2023-03-25T00:58:49;9.60;99.90
60473;DHT22;46318;52.716;6.444;2023-03-25T01:01:18;9.60;99.90
60473;DHT22;46318;52.716;6.444;2023-03-25T01:03:52;9.60;99.90
60473;DHT22;46318;52.716;6.444;2023-03-25T01:06:24;9.60;99.90
60473;DHT22;46318;52.716;6.444;2023-03-25T01:08:55;9.60;99.90
60473;DHT22;46318;52.716;6.444;2023-03-25T01:11:27;9.60;99.90
60473;DHT22;46318;52.716;6.444;2023-03-25T01:13:56;9.60;99.90
60473;DHT22;46318;52.716;6.444;2023-03-25T01:16:24;9.60;99.90
60473;DHT22;46318;52.716;6.444;2023-03-25T01:18:50;9.60;99.90
60473;DHT22;46318;52.716;6.444;2023-03-25T01:21:16;9.60;99.90
60473;DHT22;46318;52.716;6.444;2023-03-25T01:23:43;9.50;99.90
60473;DHT22;46318;52.716;6.444;2023-03-25T01:26:09;9.60;99.90
60473;DHT22;46318;52.716;6.444;2023-03-25T01:28:38;9.50;99.90
60473;DHT22;46318;52.716;6.444;2023-03-25T01:31:07;9.50;99.90
60473;DHT22;46318;52.716;6.444;2023-03-25T01:33:34;9.50;99.90
60473;DHT22;46318;52.716;6.444;2023-03-25T01:36:00;9.50;99.90
60473;DHT22;46318;52.716;6.444;2023-03-25T01:38:27;9.50;99.90
60473;DHT22;46318;52.716;6.444;2023-03-25T01:40:55;9.40;99.90
60473;DHT22;46318;52.716;6.444;2023-03-25T01:43:22;9.40;99.90
60473;DHT22;46318;52.716;6.444;2023-03-25T01:45:48;9.40;99.90
60473;DHT22;46318;52.716;6.444;2023-03-25T01:48:30;9.40;99.90
60473;DHT22;46318;52.716;6.444;2023-03-25T01:51:13;9.40;99.90
60473;DHT22;46318;52.716;6.444;2023-03-25T01:53:43;9.30;99.90
60473;DHT22;46318;52.716;6.444;2023-03-25T01:56:12;9.30;99.90
60473;DHT22;46318;52.716;6.444;2023-03-25T01:58:41;9.30;99.90
60473;DHT22;46318;52.716;6.444;2023-03-25T02:01:07;9.30;99.90
60473;DHT22;46318;52.716;6.444;2023-03-25T02:03:39;9.20;99.90
60473;DHT22;46318;52.716;6.444;2023-03-25T02:06:16;9.20;99.90
60473;DHT22;46318;52.716;6.444;2023-03-25T02:08:52;9.20;99.90
60473;DHT22;46318;52.716;6.444;2023-03-25T02:11:19;9.20;99.90
60473;DHT22;46318;52.716;6.444;2023-03-25T02:13:45;9.20;99.90
60473;DHT22;46318;52.716;6.444;2023-03-25T02:22:32;9.20;99.90
60473;DHT22;46318;52.716;6.444;2023-03-25T02:28:33;9.10;99.90
60473;DHT22;46318;52.716;6.444;2023-03-25T02:34:35;9.00;99.90
60473;DHT22;46318;52.716;6.444;2023-03-25T02:46:40;9.00;99.90
60473;DHT22;46318;52.716;6.444;2023-03-25T02:49:23;9.00;99.90
60473;DHT22;46318;52.716;6.444;2023-03-25T02:51:54;9.00;99.90
60473;DHT22;46318;52.716;6.444;2023-03-25T02:54:24;8.90;99.90
60473;DHT22;46318;52.716;6.444;2023-03-25T02:56:52;8.90;99.90
60473;DHT22;46318;52.716;6.444;2023-03-25T02:59:23;8.90;99.90
60473;DHT22;46318;52.716;6.444;2023-03-25T03:01:56;8.90;99.90
60473;DHT22;46318;52.716;6.444;2023-03-25T03:04:24;8.90;99.90
60473;DHT22;46318;52.716;6.444;2023-03-25T03:06:51;8.90;99.90
60473;DHT22;46318;52.716;6.444;2023-03-25T03:09:36;8.90;99.90
60473;DHT22;46318;52.716;6.444;2023-03-25T03:12:19;8.90;99.90
60473;DHT22;46318;52.716;6.444;2023-03-25T03:15:16;8.90;99.90
60473;DHT22;46318;52.716;6.444;2023-03-25T03:20:38;8.90;99.90
60473;DHT22;46318;52.716;6.444;2023-03-25T03:23:38;8.90;99.90
60473;DHT22;46318;52.716;6.444;2023-03-25T03:26:34;8.90;99.90
60473;DHT22;46318;52.716;6.444;2023-03-25T03:32:06;8.90;99.90
60473;DHT22;46318;52.716;6.444;2023-03-25T03:34:51;8.80;99.90
60473;DHT22;46318;52.716;6.444;2023-03-25T03:37:18;8.80;99.90
60473;DHT22;46318;52.716;6.444;2023-03-25T03:39:48;8.80;99.90
60473;DHT22;46318;52.716;6.444;2023-03-25T03:42:19;8.80;99.90
60473;DHT22;46318;52.716;6.444;2023-03-25T03:45:23;8.80;99.90
60473;DHT22;46318;52.716;6.444;2023-03-25T03:48:25;8.80;99.90
60473;DHT22;46318;52.716;6.444;2023-03-25T03:50:55;8.80;99.90
60473;DHT22;46318;52.716;6.444;2023-03-25T03:53:30;8.80;99.90
60473;DHT22;46318;52.716;6.444;2023-03-25T03:56:12;8.80;99.90
60473;DHT22;46318;52.716;6.444;2023-03-25T03:58:45;8.80;99.90
60473;DHT22;46318;52.716;6.444;2023-03-25T04:02:12;8.80;99.90
60473;DHT22;46318;52.716;6.444;2023-03-25T04:04:13;8.80;99.90
60473;DHT22;46318;52.716;6.444;2023-03-25T04:07:04;8.80;99.90
60473;DHT22;46318;52.716;6.444;2023-03-25T04:09:48;8.80;99.90
60473;DHT22;46318;52.716;6.444;2023-03-25T04:12:26;8.80;99.90
60473;DHT22;46318;52.716;6.444;2023-03-25T04:14:58;8.80;99.90
60473;DHT22;46318;52.716;6.444;2023-03-25T04:17:25;8.80;99.90
60473;DHT22;46318;52.716;6.444;2023-03-25T04:19:55;8.70;99.90
60473;DHT22;46318;52.716;6.444;2023-03-25T04:22:21;8.70;99.90
60473;DHT22;46318;52.716;6.444;2023-03-25T04:24:47;8.70;99.90
60473;DHT22;46318;52.716;6.444;2023-03-25T04:27:20;8.80;99.90
60473;DHT22;46318;52.716;6.444;2023-03-25T04:29:48;8.70;99.90
60473;DHT22;46318;52.716;6.444;2023-03-25T04:32:16;8.70;99.90
60473;DHT22;46318;52.716;6.444;2023-03-25T04:34:43;8.80;99.90
60473;DHT22;46318;52.716;6.444;2023-03-25T04:37:08;8.70;99.90
60473;DHT22;46318;52.716;6.444;2023-03-25T04:39:35;8.70;99.90
60473;DHT22;46318;52.716;6.444;2023-03-25T04:42:01;8.70;99.90
60473;DHT22;46318;52.716;6.444;2023-03-25T04:44:28;8.70;99.90
60473;DHT22;46318;52.716;6.444;2023-03-25T04:47:00;8.70;99.90
60473;DHT22;46318;52.716;6.444;2023-03-25T04:49:26;8.70;99.90
60473;DHT22;46318;52.716;6.444;2023-03-25T04:51:53;8.70;99.90
60473;DHT22;46318;52.716;6.444;2023-03-25T04:54:20;8.70;99.90
60473;DHT22;46318;52.716;6.444;2023-03-25T04:56:48;8.70;99.90
60473;DHT22;46318;52.716;6.444;2023-03-25T04:59:16;8.70;99.90
60473;DHT22;46318;52.716;6.444;2023-03-25T05:01:43;8.70;99.90
60473;DHT22;46318;52.716;6.444;2023-03-25T05:04:11;8.70;99.90
60473;DHT22;46318;52.716;6.444;2023-03-25T05:06:44;8.70;99.90
60473;DHT22;46318;52.716;6.444;2023-03-25T05:09:13;8.70;99.90
60473;DHT22;46318;52.716;6.444;2023-03-25T05:11:41;8.70;99.90
60473;DHT22;46318;52.716;6.444;2023-03-25T05:14:12;8.60;99.90
60473;DHT22;46318;52.716;6.444;2023-03-25T05:16:40;8.60;99.90
60473;DHT22;46318;52.716;6.444;2023-03-25T05:19:06;8.60;99.90
60473;DHT22;46318;52.716;6.444;2023-03-25T05:21:33;8.60;99.90
60473;DHT22;46318;52.716;6.444;2023-03-25T05:24:01;8.60;99.90
60473;DHT22;46318;52.716;6.444;2023-03-25T05:26:28;8.60;99.90
60473;DHT22;46318;52.716;6.444;2023-03-25T05:29:03;8.60;99.90
60473;DHT22;46318;52.716;6.444;2023-03-25T05:31:30;8.60;99.90
60473;DHT22;46318;52.716;6.444;2023-03-25T05:33:56;8.60;99.90
60473;DHT22;46318;52.716;6.444;2023-03-25T05:36:22;8.50;99.90
60473;DHT22;46318;52.716;6.444;2023-03-25T05:38:52;8.50;99.90
60473;DHT22;46318;52.716;6.444;2023-03-25T05:41:20;8.50;99.90
60473;DHT22;46318;52.716;6.444;2023-03-25T05:43:48;8.50;99.90
60473;DHT22;46318;52.716;6.444;2023-03-25T05:46:16;8.50;99.90
60473;DHT22;46318;52.716;6.444;2023-03-25T05:48:44;8.50;99.90
60473;DHT22;46318;52.716;6.444;2023-03-25T05:51:17;8.50;99.90
60473;DHT22;46318;52.716;6.444;2023-03-25T05:53:47;8.50;99.90
60473;DHT22;46318;52.716;6.444;2023-03-25T05:56:17;8.50;99.90
60473;DHT22;46318;52.716;6.444;2023-03-25T05:58:48;8.50;99.90
60473;DHT22;46318;52.716;6.444;2023-03-25T06:01:16;8.50;99.90
60473;DHT22;46318;52.716;6.444;2023-03-25T06:03:43;8.50;99.90
60473;DHT22;46318;52.716;6.444;2023-03-25T06:06:14;8.50;99.90
60473;DHT22;46318;52.716;6.444;2023-03-25T06:08:48;8.50;99.90
60473;DHT22;46318;52.716;6.444;2023-03-25T06:11:16;8.50;99.90
60473;DHT22;46318;52.716;6.444;2023-03-25T06:13:44;8.50;99.90
60473;DHT22;46318;52.716;6.444;2023-03-25T06:16:19;8.50;99.90
60473;DHT22;46318;52.716;6.444;2023-03-25T06:18:48;8.50;99.90
60473;DHT22;46318;52.716;6.444;2023-03-25T06:21:19;8.50;99.90
60473;DHT22;46318;52.716;6.444;2023-03-25T06:23:46;8.50;99.90
60473;DHT22;46318;52.716;6.444;2023-03-25T06:26:15;8.50;99.90
60473;DHT22;46318;52.716;6.444;2023-03-25T06:28:42;8.50;99.90
60473;DHT22;46318;52.716;6.444;2023-03-25T06:31:13;8.40;99.90
60473;DHT22;46318;52.716;6.444;2023-03-25T06:33:42;8.40;99.90
60473;DHT22;46318;52.716;6.444;2023-03-25T06:36:10;8.50;99.90
60473;DHT22;46318;52.716;6.444;2023-03-25T06:38:38;8.40;99.90
60473;DHT22;46318;52.716;6.444;2023-03-25T06:41:05;8.40;99.90
60473;DHT22;46318;52.716;6.444;2023-03-25T06:43:34;8.40;99.90
60473;DHT22;46318;52.716;6.444;2023-03-25T06:46:00;8.40;99.90
60473;DHT22;46318;52.716;6.444;2023-03-25T06:48:26;8.40;99.90
60473;DHT22;46318;52.716;6.444;2023-03-25T06:50:52;8.40;99.90
60473;DHT22;46318;52.716;6.444;2023-03-25T06:53:18;8.50;99.90
60473;DHT22;46318;52.716;6.444;2023-03-25T06:55:43;8.50;99.90
60473;DHT22;46318;52.716;6.444;2023-03-25T06:58:10;8.60;99.90
60473;DHT22;46318;52.716;6.444;2023-03-25T07:00:36;8.60;99.90
60473;DHT22;46318;52.716;6.444;2023-03-25T07:03:03;8.70;99.90
60473;DHT22;46318;52.716;6.444;2023-03-25T07:05:29;8.70;99.90
60473;DHT22;46318;52.716;6.444;2023-03-25T07:07:54;8.70;99.90
60473;DHT22;46318;52.716;6.444;2023-03-25T07:10:20;8.70;99.90
60473;DHT22;46318;52.716;6.444;2023-03-25T07:12:46;8.80;99.90
60473;DHT22;46318;52.716;6.444;2023-03-25T07:15:12;8.80;99.90
60473;DHT22;46318;52.716;6.444;2023-03-25T07:17:38;8.80;99.90
60473;DHT22;46318;52.716;6.444;2023-03-25T07:20:05;8.80;99.90
60473;DHT22;46318;52.716;6.444;2023-03-25T07:22:33;8.80;99.90
60473;DHT22;46318;52.716;6.444;2023-03-25T07:24:59;8.80;99.90
60473;DHT22;46318;52.716;6.444;2023-03-25T07:27:25;8.80;99.90
60473;DHT22;46318;52.716;6.444;2023-03-25T07:29:52;8.80;99.90
60473;DHT22;46318;52.716;6.444;2023-03-25T07:32:18;8.80;99.90
60473;DHT22;46318;52.716;6.444;2023-03-25T07:34:44;8.80;99.90
60473;DHT22;46318;52.716;6.444;2023-03-25T07:37:09;8.80;99.90
60473;DHT22;46318;52.716;6.444;2023-03-25T07:39:35;8.80;99.90
60473;DHT22;46318;52.716;6.444;2023-03-25T07:42:01;8.80;99.90
60473;DHT22;46318;52.716;6.444;2023-03-25T07:44:27;8.80;99.90
60473;DHT22;46318;52.716;6.444;2023-03-25T07:46:53;8.80;99.90
60473;DHT22;46318;52.716;6.444;2023-03-25T07:49:19;8.70;99.90
60473;DHT22;46318;52.716;6.444;2023-03-25T07:51:45;8.70;99.90
60473;DHT22;46318;52.716;6.444;2023-03-25T07:54:11;8.70;99.90
60473;DHT22;46318;52.716;6.444;2023-03-25T07:56:37;8.70;99.90
60473;DHT22;46318;52.716;6.444;2023-03-25T07:59:03;8.70;99.90
60473;DHT22;46318;52.716;6.444;2023-03-25T08:01:30;8.70;99.90
60473;DHT22;46318;52.716;6.444;2023-03-25T08:03:56;8.70;99.90
60473;DHT22;46318;52.716;6.444;2023-03-25T08:06:22;8.70;99.90
60473;DHT22;46318;52.716;6.444;2023-03-25T08:08:48;8.80;99.90
60473;DHT22;46318;52.716;6.444;2023-03-25T08:11:14;8.80;99.90
60473;DHT22;46318;52.716;6.444;2023-03-25T08:13:40;8.80;99.90
60473;DHT22;46318;52.716;6.444;2023-03-25T08:16:15;8.80;99.90
60473;DHT22;46318;52.716;6.444;2023-03-25T08:18:41;8.80;99.90
60473;DHT22;46318;52.716;6.444;2023-03-25T08:21:17;8.90;99.90
60473;DHT22;46318;52.716;6.444;2023-03-25T08:23:53;8.90;99.90
60473;DHT22;46318;52.716;6.444;2023-03-25T08:26:26;8.90;99.90
60473;DHT22;46318;52.716;6.444;2023-03-25T08:28:54;8.90;99.90
60473;DHT22;46318;52.716;6.444;2023-03-25T08:31:23;8.90;99.90
60473;DHT22;46318;52.716;6.444;2023-03-25T08:33:52;8.90;99.90
60473;DHT22;46318;52.716;6.444;2023-03-25T08:36:18;8.90;99.90
60473;DHT22;46318;52.716;6.444;2023-03-25T08:38:45;8.90;99.90
60473;DHT22;46318;52.716;6.444;2023-03-25T08:41:12;8.90;99.90
60473;DHT22;46318;52.716;6.444;2023-03-25T08:43:38;8.90;99.90
60473;DHT22;46318;52.716;6.444;2023-03-25T08:46:04;8.90;99.90
60473;DHT22;46318;52.716;6.444;2023-03-25T08:48:30;8.90;99.90
60473;DHT22;46318;52.716;6.444;2023-03-25T08:50:57;8.90;99.90
60473;DHT22;46318;52.716;6.444;2023-03-25T08:53:24;8.90;99.90
60473;DHT22;46318;52.716;6.444;2023-03-25T08:55:54;8.90;99.90
60473;DHT22;46318;52.716;6.444;2023-03-25T08:58:22;9.00;99.90
60473;DHT22;46318;52.716;6.444;2023-03-25T09:00:50;9.00;99.90
60473;DHT22;46318;52.716;6.444;2023-03-25T09:03:22;9.10;99.90
60473;DHT22;46318;52.716;6.444;2023-03-25T09:05:49;9.10;99.90
60473;DHT22;46318;52.716;6.444;2023-03-25T09:08:15;9.10;99.90
60473;DHT22;46318;52.716;6.444;2023-03-25T09:10:41;9.10;99.90
60473;DHT22;46318;52.716;6.444;2023-03-25T09:13:07;9.10;99.90
60473;DHT22;46318;52.716;6.444;2023-03-25T09:15:33;9.20;99.90
60473;DHT22;46318;52.716;6.444;2023-03-25T09:17:59;9.20;99.90
60473;DHT22;46318;52.716;6.444;2023-03-25T09:20:25;9.30;99.90
60473;DHT22;46318;52.716;6.444;2023-03-25T09:22:51;9.40;99.90
60473;DHT22;46318;52.716;6.444;2023-03-25T09:25:17;9.40;99.90
60473;DHT22;46318;52.716;6.444;2023-03-25T09:27:43;9.40;99.90
60473;DHT22;46318;52.716;6.444;2023-03-25T09:30:09;9.40;99.90
60473;DHT22;46318;52.716;6.444;2023-03-25T09:32:36;9.40;99.90
60473;DHT22;46318;52.716;6.444;2023-03-25T09:35:02;9.50;99.90
60473;DHT22;46318;52.716;6.444;2023-03-25T09:37:28;9.40;99.90
60473;DHT22;46318;52.716;6.444;2023-03-25T09:39:54;9.40;99.90
60473;DHT22;46318;52.716;6.444;2023-03-25T09:42:50;9.40;99.90
60473;DHT22;46318;52.716;6.444;2023-03-25T09:45:41;9.50;99.90
60473;DHT22;46318;52.716;6.444;2023-03-25T09:48:38;9.50;99.90
60473;DHT22;46318;52.716;6.444;2023-03-25T09:51:09;9.50;99.90
60473;DHT22;46318;52.716;6.444;2023-03-25T09:53:47;9.50;99.90
60473;DHT22;46318;52.716;6.444;2023-03-25T09:56:23;9.50;99.90
60473;DHT22;46318;52.716;6.444;2023-03-25T09:59:11;9.50;99.90
60473;DHT22;46318;52.716;6.444;2023-03-25T10:04:51;9.50;99.90
60473;DHT22;46318;52.716;6.444;2023-03-25T10:13:39;9.50;99.90
60473;DHT22;46318;52.716;6.444;2023-03-25T10:24:52;9.50;99.90
60473;DHT22;46318;52.716;6.444;2023-03-25T10:27:38;9.60;99.90
60473;DHT22;46318;52.716;6.444;2023-03-25T10:30:12;9.60;99.90
60473;DHT22;46318;52.716;6.444;2023-03-25T10:33:03;9.60;99.90
60473;DHT22;46318;52.716;6.444;2023-03-25T10:35:41;9.60;99.90
60473;DHT22;46318;52.716;6.444;2023-03-25T10:38:18;9.60;99.90
60473;DHT22;46318;52.716;6.444;2023-03-25T10:41:00;9.70;99.90
60473;DHT22;46318;52.716;6.444;2023-03-25T10:43:33;9.70;99.90
60473;DHT22;46318;52.716;6.444;2023-03-25T10:46:12;9.80;99.90
60473;DHT22;46318;52.716;6.444;2023-03-25T10:48:44;9.80;99.90
60473;DHT22;46318;52.716;6.444;2023-03-25T10:51:13;9.80;99.90
60473;DHT22;46318;52.716;6.444;2023-03-25T10:53:44;9.90;99.90
60473;DHT22;46318;52.716;6.444;2023-03-25T10:56:20;9.90;99.90
60473;DHT22;46318;52.716;6.444;2023-03-25T10:58:56;9.90;99.90
60473;DHT22;46318;52.716;6.444;2023-03-25T11:01:41;9.90;99.90
60473;DHT22;46318;52.716;6.444;2023-03-25T11:04:15;9.90;99.90
60473;DHT22;46318;52.716;6.444;2023-03-25T11:06:51;10.00;99.90
60473;DHT22;46318;52.716;6.444;2023-03-25T11:09:27;10.00;99.90
60473;DHT22;46318;52.716;6.444;2023-03-25T11:12:02;10.00;99.90
60473;DHT22;46318;52.716;6.444;2023-03-25T11:14:36;10.10;99.90
60473;DHT22;46318;52.716;6.444;2023-03-25T11:17:15;10.10;99.90
60473;DHT22;46318;52.716;6.444;2023-03-25T11:22:28;10.20;99.90
60473;DHT22;46318;52.716;6.444;2023-03-25T11:25:11;10.30;99.90
60473;DHT22;46318;52.716;6.444;2023-03-25T11:27:49;10.30;99.90
60473;DHT22;46318;52.716;6.444;2023-03-25T11:30:20;10.40;99.90
60473;DHT22;46318;52.716;6.444;2023-03-25T11:33:03;10.40;99.90
60473;DHT22;46318;52.716;6.444;2023-03-25T11:35:35;10.50;99.90
60473;DHT22;46318;52.716;6.444;2023-03-25T11:38:14;10.60;99.90
60473;DHT22;46318;52.716;6.444;2023-03-25T11:40:52;10.60;99.90
60473;DHT22;46318;52.716;6.444;2023-03-25T11:43:27;10.60;99.90
60473;DHT22;46318;52.716;6.444;2023-03-25T11:45:57;10.60;99.90
60473;DHT22;46318;52.716;6.444;2023-03-25T11:48:40;10.70;99.90
60473;DHT22;46318;52.716;6.444;2023-03-25T11:51:16;10.70;99.90
60473;DHT22;46318;52.716;6.444;2023-03-25T11:53:47;10.70;99.90
60473;DHT22;46318;52.716;6.444;2023-03-25T11:56:29;10.70;99.90
60473;DHT22;46318;52.716;6.444;2023-03-25T11:59:00;10.80;99.90
60473;DHT22;46318;52.716;6.444;2023-03-25T12:01:45;10.90;99.90
60473;DHT22;46318;52.716;6.444;2023-03-25T12:04:22;11.00;99.90
60473;DHT22;46318;52.716;6.444;2023-03-25T12:06:54;11.10;99.90
60473;DHT22;46318;52.716;6.444;2023-03-25T12:09:28;11.10;99.90
60473;DHT22;46318;52.716;6.444;2023-03-25T12:15:43;11.10;99.90
60473;DHT22;46318;52.716;6.444;2023-03-25T12:21:31;11.20;99.90
60473;DHT22;46318;52.716;6.444;2023-03-25T12:32:56;11.20;99.90
60473;DHT22;46318;52.716;6.444;2023-03-25T12:35:46;11.20;99.90
60473;DHT22;46318;52.716;6.444;2023-03-25T12:42:20;11.20;99.90
60473;DHT22;46318;52.716;6.444;2023-03-25T12:45:24;11.20;99.90
60473;DHT22;46318;52.716;6.444;2023-03-25T12:48:14;11.30;99.90
60473;DHT22;46318;52.716;6.444;2023-03-25T13:06:10;11.60;99.90
60473;DHT22;46318;52.716;6.444;2023-03-25T13:08:49;11.60;99.90
60473;DHT22;46318;52.716;6.444;2023-03-25T13:11:30;11.60;99.90
60473;DHT22;46318;52.716;6.444;2023-03-25T13:14:05;11.60;99.90
60473;DHT22;46318;52.716;6.444;2023-03-25T13:16:39;11.60;99.90
60473;DHT22;46318;52.716;6.444;2023-03-25T13:19:19;11.60;99.90
60473;DHT22;46318;52.716;6.444;2023-03-25T13:22:30;11.70;99.90
60473;DHT22;46318;52.716;6.444;2023-03-25T13:24:59;11.80;99.90
60473;DHT22;46318;52.716;6.444;2023-03-25T13:27:35;12.00;99.90
60473;DHT22;46318;52.716;6.444;2023-03-25T13:30:12;12.20;99.90
60473;DHT22;46318;52.716;6.444;2023-03-25T13:32:44;12.20;99.90
60473;DHT22;46318;52.716;6.444;2023-03-25T13:38:10;12.20;99.90
60473;DHT22;46318;52.716;6.444;2023-03-25T13:40:53;12.30;99.90
60473;DHT22;46318;52.716;6.444;2023-03-25T13:43:55;12.40;99.90
60473;DHT22;46318;52.716;6.444;2023-03-25T13:52:21;12.50;99.90
60473;DHT22;46318;52.716;6.444;2023-03-25T13:54:56;12.50;99.90
60473;DHT22;46318;52.716;6.444;2023-03-25T13:58:18;12.50;99.90
60473;DHT22;46318;52.716;6.444;2023-03-25T14:10:01;12.30;99.30
60473;DHT22;46318;52.716;6.444;2023-03-25T14:12:52;12.30;99.90
60473;DHT22;46318;52.716;6.444;2023-03-25T14:15:30;12.30;99.80
60473;DHT22;46318;52.716;6.444;2023-03-25T14:17:59;12.30;99.20
60473;DHT22;46318;52.716;6.444;2023-03-25T14:20:34;12.20;99.50
60473;DHT22;46318;52.716;6.444;2023-03-25T14:23:04;12.20;99.80
60473;DHT22;46318;52.716;6.444;2023-03-25T14:25:41;12.20;99.90
60473;DHT22;46318;52.716;6.444;2023-03-25T14:28:18;12.10;99.50
60473;DHT22;46318;52.716;6.444;2023-03-25T14:39:10;11.80;99.90
60473;DHT22;46318;52.716;6.444;2023-03-25T14:41:59;11.70;99.90
60473;DHT22;46318;52.716;6.444;2023-03-25T14:44:34;11.50;99.90
60473;DHT22;46318;52.716;6.444;2023-03-25T14:50:05;11.30;99.90
60473;DHT22;46318;52.716;6.444;2023-03-25T14:52:55;11.20;99.90
60473;DHT22;46318;52.716;6.444;2023-03-25T14:55:29;11.00;99.90
60473;DHT22;46318;52.716;6.444;2023-03-25T14:58:00;11.00;99.90
60473;DHT22;46318;52.716;6.444;2023-03-25T15:00:42;10.90;99.90
60473;DHT22;46318;52.716;6.444;2023-03-25T15:03:16;10.80;99.90
60473;DHT22;46318;52.716;6.444;2023-03-25T15:05:44;10.60;99.90
60473;DHT22;46318;52.716;6.444;2023-03-25T15:08:33;10.60;99.90
60473;DHT22;46318;52.716;6.444;2023-03-25T15:11:24;10.50;99.90
60473;DHT22;46318;52.716;6.444;2023-03-25T15:14:02;10.40;99.90
60473;DHT22;46318;52.716;6.444;2023-03-25T15:19:18;10.40;99.90
60473;DHT22;46318;52.716;6.444;2023-03-25T15:24:46;10.30;99.90
60473;DHT22;46318;52.716;6.444;2023-03-25T15:36:57;10.20;99.90
60473;DHT22;46318;52.716;6.444;2023-03-25T15:42:49;10.30;99.90
60473;DHT22;46318;52.716;6.444;2023-03-25T15:54:28;10.20;99.90
60473;DHT22;46318;52.716;6.444;2023-03-25T16:05:38;10.10;99.90
60473;DHT22;46318;52.716;6.444;2023-03-25T16:08:16;10.00;99.90
60473;DHT22;46318;52.716;6.444;2023-03-25T16:10:46;9.90;99.90
60473;DHT22;46318;52.716;6.444;2023-03-25T16:13:16;9.80;99.90
60473;DHT22;46318;52.716;6.444;2023-03-25T16:15:51;9.60;99.90
60473;DHT22;46318;52.716;6.444;2023-03-25T16:18:22;9.50;99.90
60473;DHT22;46318;52.716;6.444;2023-03-25T16:20:59;9.40;99.90
60473;DHT22;46318;52.716;6.444;2023-03-25T16:23:26;9.40;99.90
60473;DHT22;46318;52.716;6.444;2023-03-25T16:25:54;9.30;99.90
60473;DHT22;46318;52.716;6.444;2023-03-25T16:28:29;9.30;99.90
60473;DHT22;46318;52.716;6.444;2023-03-25T16:30:59;9.30;99.90
60473;DHT22;46318;52.716;6.444;2023-03-25T16:33:32;9.30;99.90
60473;DHT22;46318;52.716;6.444;2023-03-25T16:36:14;9.30;99.90
60473;DHT22;46318;52.716;6.444;2023-03-25T16:38:42;9.30;99.90
60473;DHT22;46318;52.716;6.444;2023-03-25T16:41:13;9.30;99.90
60473;DHT22;46318;52.716;6.444;2023-03-25T16:43:40;9.30;99.90
60473;DHT22;46318;52.716;6.444;2023-03-25T16:46:09;9.40;99.90
60473;DHT22;46318;52.716;6.444;2023-03-25T16:48:39;9.40;99.90
60473;DHT22;46318;52.716;6.444;2023-03-25T16:51:15;9.40;99.90
60473;DHT22;46318;52.716;6.444;2023-03-25T16:53:43;9.40;99.90
60473;DHT22;46318;52.716;6.444;2023-03-25T17:01:25;9.40;99.90
60473;DHT22;46318;52.716;6.444;2023-03-25T17:06:37;9.40;99.90
60473;DHT22;46318;52.716;6.444;2023-03-25T17:09:20;9.40;99.90
60473;DHT22;46318;52.716;6.444;2023-03-25T17:11:52;9.40;99.90
60473;DHT22;46318;52.716;6.444;2023-03-25T17:14:26;9.40;99.90
60473;DHT22;46318;52.716;6.444;2023-03-25T17:16:55;9.40;99.90
60473;DHT22;46318;52.716;6.444;2023-03-25T17:19:22;9.40;99.90
60473;DHT22;46318;52.716;6.444;2023-03-25T17:24:55;9.30;99.90
60473;DHT22;46318;52.716;6.444;2023-03-25T17:27:36;9.20;99.90
60473;DHT22;46318;52.716;6.444;2023-03-25T17:33:30;9.20;99.90
60473;DHT22;46318;52.716;6.444;2023-03-25T17:36:08;9.20;99.90
60473;DHT22;46318;52.716;6.444;2023-03-25T17:38:44;9.10;99.90
60473;DHT22;46318;52.716;6.444;2023-03-25T17:41:14;9.10;99.90
60473;DHT22;46318;52.716;6.444;2023-03-25T17:43:44;9.10;99.90
60473;DHT22;46318;52.716;6.444;2023-03-25T17:46:17;9.10;99.90
60473;DHT22;46318;52.716;6.444;2023-03-25T17:48:45;9.10;99.90
60473;DHT22;46318;52.716;6.444;2023-03-25T17:51:12;9.10;99.90
60473;DHT22;46318;52.716;6.444;2023-03-25T17:53:39;9.10;99.90
60473;DHT22;46318;52.716;6.444;2023-03-25T17:56:06;9.10;99.90
60473;DHT22;46318;52.716;6.444;2023-03-25T17:58:33;9.10;99.90
60473;DHT22;46318;52.716;6.444;2023-03-25T18:00:59;9.10;99.90
60473;DHT22;46318;52.716;6.444;2023-03-25T18:03:26;9.10;99.90
60473;DHT22;46318;52.716;6.444;2023-03-25T18:05:56;9.10;99.90
60473;DHT22;46318;52.716;6.444;2023-03-25T18:08:26;9.10;99.90
60473;DHT22;46318;52.716;6.444;2023-03-25T18:10:53;9.10;99.90
60473;DHT22;46318;52.716;6.444;2023-03-25T18:13:21;9.10;99.90
60473;DHT22;46318;52.716;6.444;2023-03-25T18:15:48;9.10;99.90
60473;DHT22;46318;52.716;6.444;2023-03-25T18:18:18;9.10;99.90
60473;DHT22;46318;52.716;6.444;2023-03-25T18:20:46;9.10;99.90
60473;DHT22;46318;52.716;6.444;2023-03-25T18:23:15;9.10;99.90
60473;DHT22;46318;52.716;6.444;2023-03-25T18:25:42;9.10;99.90
60473;DHT22;46318;52.716;6.444;2023-03-25T18:28:13;9.10;99.90
60473;DHT22;46318;52.716;6.444;2023-03-25T18:30:44;9.00;99.90
60473;DHT22;46318;52.716;6.444;2023-03-25T18:33:20;9.10;99.90
60473;DHT22;46318;52.716;6.444;2023-03-25T18:35:48;9.00;99.90
60473;DHT22;46318;52.716;6.444;2023-03-25T18:38:22;9.00;99.90
60473;DHT22;46318;52.716;6.444;2023-03-25T18:40:51;9.00;99.90
60473;DHT22;46318;52.716;6.444;2023-03-25T18:43:17;9.00;99.90
60473;DHT22;46318;52.716;6.444;2023-03-25T18:45:45;9.00;99.90
60473;DHT22;46318;52.716;6.444;2023-03-25T18:48:17;9.00;99.90
60473;DHT22;46318;52.716;6.444;2023-03-25T18:50:50;9.00;99.90
60473;DHT22;46318;52.716;6.444;2023-03-25T18:53:22;9.00;99.90
60473;DHT22;46318;52.716;6.444;2023-03-25T18:55:50;9.00;99.90
60473;DHT22;46318;52.716;6.444;2023-03-25T18:58:24;9.00;99.90